createdAt,value
2022-11-16T00:00:32.175Z,11.90
2022-11-16T00:03:03.293Z,11.91
2022-11-16T00:05:32.079Z,11.92
2022-11-16T00:08:00.187Z,11.92
2022-11-16T00:10:30.836Z,11.90
2022-11-16T00:12:59.100Z,11.89
2022-11-16T00:15:27.733Z,11.89
2022-11-16T00:17:59.565Z,11.92
2022-11-16T00:20:27.789Z,11.91
2022-11-16T00:22:55.959Z,11.89
2022-11-16T00:25:23.818Z,11.88
2022-11-16T00:27:51.795Z,11.88
2022-11-16T00:30:20.018Z,11.89
2022-11-16T00:32:47.880Z,11.88
2022-11-16T00:35:19.676Z,11.89
2022-11-16T00:37:47.527Z,11.87
2022-11-16T00:40:15.705Z,11.85
2022-11-16T00:42:43.755Z,11.86
2022-11-16T00:45:14.745Z,11.85
2022-11-16T00:47:42.680Z,11.84
2022-11-16T00:50:10.913Z,11.84
2022-11-16T00:52:42.438Z,11.82
2022-11-16T00:55:10.977Z,11.81
2022-11-16T00:57:38.806Z,11.80
2022-11-16T01:00:07.717Z,11.80
2022-11-16T01:02:36.285Z,11.80
2022-11-16T01:05:04.639Z,11.79
2022-11-16T01:07:32.789Z,11.79
2022-11-16T01:10:02.241Z,11.79
2022-11-16T01:12:29.187Z,11.78
2022-11-16T01:14:57.297Z,11.77
2022-11-16T01:17:25.600Z,11.76
2022-11-16T01:19:54.479Z,11.75
2022-11-16T01:22:22.598Z,11.77
2022-11-16T01:24:50.617Z,11.75
2022-11-16T01:27:19.865Z,11.73
2022-11-16T01:29:48.340Z,11.73
2022-11-16T01:32:16.932Z,11.72
2022-11-16T01:34:45.572Z,11.73
2022-11-16T01:37:24.693Z,11.72
2022-11-16T01:39:52.725Z,11.71
2022-11-16T01:42:24.168Z,11.72
2022-11-16T01:45:03.178Z,11.71
2022-11-16T01:47:31.515Z,11.72
2022-11-16T01:50:05.425Z,11.70
2022-11-16T01:52:37.957Z,11.70
2022-11-16T01:55:07.328Z,11.68
2022-11-16T01:57:56.392Z,11.63
2022-11-16T02:00:24.863Z,11.52
2022-11-16T02:03:03.724Z,11.46
2022-11-16T02:06:05.821Z,11.45
2022-11-16T02:09:19.760Z,11.44
2022-11-16T02:12:09.896Z,11.41
2022-11-16T02:14:53.760Z,11.43
2022-11-16T02:17:33.498Z,11.37
2022-11-16T02:20:31.491Z,11.42
2022-11-16T02:23:21.312Z,11.35
2022-11-16T02:25:59.479Z,11.35
2022-11-16T02:28:38.074Z,11.40
2022-11-16T02:31:14.263Z,11.40
2022-11-16T02:33:45.474Z,11.41
2022-11-16T02:36:21.607Z,11.39
2022-11-16T02:38:55.598Z,11.38
2022-11-16T02:41:26.381Z,11.35
2022-11-16T02:44:03.584Z,11.36
2022-11-16T02:46:38.528Z,11.33
2022-11-16T02:49:12.755Z,11.35
2022-11-16T02:51:43.456Z,11.31
2022-11-16T02:54:16.125Z,11.30
2022-11-16T02:56:54.553Z,11.27
2022-11-16T02:59:30.808Z,11.31
2022-11-16T03:02:15.215Z,11.32
2022-11-16T03:04:47.402Z,11.35
2022-11-16T03:07:18.626Z,11.26
2022-11-16T03:10:08.677Z,11.30
2022-11-16T03:12:37.720Z,11.26
2022-11-16T03:15:10.835Z,11.25
2022-11-16T03:17:44.503Z,11.19
2022-11-16T03:20:16.152Z,11.16
2022-11-16T03:22:47.422Z,11.14
2022-11-16T03:25:42.580Z,11.16
2022-11-16T03:28:16.295Z,11.17
2022-11-16T03:30:53.880Z,11.17
2022-11-16T03:33:28.914Z,11.21
2022-11-16T03:36:02.678Z,11.22
2022-11-16T03:38:36.915Z,11.24
2022-11-16T03:41:09.875Z,11.22
2022-11-16T03:43:40.333Z,11.24
2022-11-16T03:46:11.584Z,11.17
2022-11-16T03:48:41.920Z,11.19
2022-11-16T03:51:15.972Z,11.17
2022-11-16T03:53:44.048Z,11.16
2022-11-16T03:56:14.610Z,11.11
2022-11-16T03:58:42.542Z,11.09
2022-11-16T04:01:11.051Z,11.14
2022-11-16T04:03:40.991Z,11.13
2022-11-16T04:06:31.112Z,11.17
2022-11-16T04:09:25.561Z,11.23
2022-11-16T04:12:11.487Z,11.23
2022-11-16T04:14:57.746Z,11.21
2022-11-16T04:17:46.702Z,11.16
2022-11-16T04:20:34.685Z,11.13
2022-11-16T04:23:26.148Z,11.13
2022-11-16T04:25:54.847Z,11.08
2022-11-16T04:28:27.537Z,11.12
2022-11-16T04:31:20.671Z,11.07
2022-11-16T04:34:27.247Z,11.01
2022-11-16T04:37:17.476Z,11.04
2022-11-16T04:39:46.159Z,11.01
2022-11-16T04:42:15.935Z,11.04
2022-11-16T04:45:04.216Z,11.02
2022-11-16T04:47:45.871Z,11.01
2022-11-16T04:50:14.756Z,11.02
2022-11-16T04:52:44.996Z,11.00
2022-11-16T04:55:14.775Z,10.97
2022-11-16T04:57:44.827Z,10.94
2022-11-16T05:00:16.089Z,10.90
2022-11-16T05:02:45.731Z,10.90
2022-11-16T05:05:14.469Z,10.90
2022-11-16T05:07:46.244Z,10.93
2022-11-16T05:10:23.923Z,10.97
2022-11-16T05:12:53.512Z,11.00
2022-11-16T05:15:21.842Z,11.01
2022-11-16T05:17:51.200Z,11.07
2022-11-16T05:20:43.272Z,11.11
2022-11-16T05:23:26.913Z,11.16
2022-11-16T05:25:55.997Z,11.19
2022-11-16T05:28:23.905Z,11.18
2022-11-16T05:30:52.645Z,11.12
2022-11-16T05:33:24.056Z,11.13
2022-11-16T05:35:52.506Z,11.14
2022-11-16T05:38:22.964Z,11.15
2022-11-16T05:40:55.449Z,11.12
2022-11-16T05:43:23.985Z,11.15
2022-11-16T05:46:01.239Z,11.12
2022-11-16T05:48:31.056Z,11.13
2022-11-16T05:50:59.859Z,11.17
2022-11-16T05:53:32.139Z,11.19
2022-11-16T05:56:00.289Z,11.15
2022-11-16T05:58:29.402Z,11.12
2022-11-16T06:00:58.876Z,11.09
2022-11-16T06:03:29.596Z,11.08
2022-11-16T06:05:57.906Z,11.04
2022-11-16T06:08:27.884Z,11.06
2022-11-16T06:11:03.031Z,11.04
2022-11-16T06:13:34.412Z,11.10
2022-11-16T06:16:04.393Z,11.11
2022-11-16T06:18:37.461Z,11.13
2022-11-16T06:21:06.320Z,11.11
2022-11-16T06:23:35.037Z,11.12
2022-11-16T06:26:05.980Z,11.10
2022-11-16T06:31:57.268Z,11.18
2022-11-16T06:34:25.401Z,11.23
2022-11-16T06:36:56.315Z,11.20
2022-11-16T06:39:24.477Z,11.24
2022-11-16T06:41:54.828Z,11.28
2022-11-16T06:44:24.009Z,11.32
2022-11-16T06:46:57.999Z,11.33
2022-11-16T06:49:26.148Z,11.35
2022-11-16T06:51:58.491Z,11.37
2022-11-16T06:54:27.559Z,11.40
2022-11-16T06:56:57.195Z,11.41
2022-11-16T06:59:28.101Z,11.42
2022-11-16T07:01:56.070Z,11.39
2022-11-16T07:04:29.495Z,11.37
2022-11-16T07:07:00.429Z,11.37
2022-11-16T07:09:28.823Z,11.41
2022-11-16T07:11:59.000Z,11.32
2022-11-16T07:14:33.714Z,11.35
2022-11-16T07:17:08.037Z,11.32
2022-11-16T07:19:37.759Z,11.27
2022-11-16T07:22:07.064Z,11.31
2022-11-16T07:24:35.309Z,11.35
2022-11-16T07:27:05.599Z,11.30
2022-11-16T07:29:37.050Z,11.32
2022-11-16T07:32:14.422Z,11.35
2022-11-16T07:35:01.211Z,11.40
2022-11-16T07:37:29.978Z,11.46
2022-11-16T07:39:58.895Z,11.47
2022-11-16T07:42:28.480Z,11.48
2022-11-16T07:45:16.790Z,11.47
2022-11-16T07:47:53.561Z,11.41
2022-11-16T07:50:40.428Z,11.56
2022-11-16T07:53:08.868Z,11.64
2022-11-16T07:55:39.085Z,11.62
2022-11-16T07:58:08.562Z,11.67
2022-11-16T08:00:36.944Z,11.65
2022-11-16T08:03:24.399Z,11.63
2022-11-16T08:06:00.335Z,11.60
2022-11-16T08:08:35.403Z,11.58
2022-11-16T08:11:04.939Z,11.56
2022-11-16T08:13:39.556Z,11.63
2022-11-16T08:16:11.361Z,11.72
2022-11-16T08:18:41.727Z,11.71
2022-11-16T08:21:12.619Z,11.85
2022-11-16T08:23:41.555Z,12.03
2022-11-16T08:26:14.260Z,12.15
2022-11-16T08:28:46.687Z,12.31
2022-11-16T08:31:21.007Z,12.42
2022-11-16T08:33:53.096Z,12.50
2022-11-16T08:36:23.523Z,12.62
2022-11-16T08:38:53.278Z,12.57
2022-11-16T08:41:24.073Z,12.57
2022-11-16T08:43:54.071Z,12.56
2022-11-16T08:46:23.354Z,12.61
2022-11-16T08:48:59.008Z,12.70
2022-11-16T08:51:27.337Z,12.76
2022-11-16T08:54:03.663Z,12.82
2022-11-16T08:56:35.640Z,12.83
2022-11-16T08:59:05.964Z,12.99
2022-11-16T09:01:34.245Z,13.13
2022-11-16T09:04:02.082Z,13.09
2022-11-16T09:06:30.053Z,13.06
2022-11-16T09:08:58.657Z,13.08
2022-11-16T09:11:27.055Z,13.17
2022-11-16T09:13:56.329Z,13.19
2022-11-16T09:16:28.031Z,13.09
2022-11-16T09:18:56.369Z,13.30
2022-11-16T09:21:28.070Z,13.42
2022-11-16T09:23:57.969Z,13.68
2022-11-16T09:26:26.650Z,13.95
2022-11-16T09:28:56.794Z,13.93
2022-11-16T09:31:27.654Z,13.94
2022-11-16T09:33:58.116Z,13.73
2022-11-16T09:36:31.177Z,13.49
2022-11-16T09:42:01.402Z,13.32
2022-11-16T09:44:54.391Z,13.26
2022-11-16T09:47:27.590Z,13.31
2022-11-16T09:50:03.018Z,13.38
2022-11-16T09:52:35.993Z,13.33
2022-11-16T09:55:24.200Z,13.37
2022-11-16T09:57:56.590Z,13.42
2022-11-16T10:00:25.281Z,13.46
2022-11-16T10:03:03.691Z,13.47
2022-11-16T10:05:38.101Z,13.55
2022-11-16T10:08:14.446Z,13.56
2022-11-16T10:10:50.895Z,13.62
2022-11-16T10:13:28.549Z,13.62
2022-11-16T10:16:04.087Z,13.55
2022-11-16T10:18:56.765Z,13.54
2022-11-16T10:21:49.736Z,13.70
2022-11-16T10:24:46.822Z,13.92
2022-11-16T10:27:32.784Z,13.79
2022-11-16T10:30:09.796Z,13.76
2022-11-16T10:32:48.237Z,13.92
2022-11-16T10:35:27.438Z,13.98
2022-11-16T10:37:58.975Z,14.04
2022-11-16T10:40:30.294Z,14.20
2022-11-16T10:43:05.359Z,14.38
2022-11-16T10:45:40.291Z,14.46
2022-11-16T10:48:18.765Z,14.56
2022-11-16T10:50:52.727Z,14.64
2022-11-16T10:53:28.303Z,14.60
2022-11-16T10:56:13.042Z,14.57
2022-11-16T10:58:53.809Z,14.45
2022-11-16T11:01:29.737Z,14.46
2022-11-16T11:03:58.508Z,14.36
2022-11-16T11:06:28.069Z,14.37
2022-11-16T11:08:55.968Z,14.45
2022-11-16T11:11:42.192Z,14.57
2022-11-16T11:14:15.337Z,14.64
2022-11-16T11:16:43.670Z,14.68
2022-11-16T11:19:26.072Z,14.54
2022-11-16T11:21:59.067Z,14.62
2022-11-16T11:24:45.361Z,14.66
2022-11-16T11:27:14.036Z,14.66
2022-11-16T11:29:44.083Z,14.74
2022-11-16T11:32:22.635Z,14.92
2022-11-16T11:34:57.158Z,14.80
2022-11-16T11:37:30.877Z,14.77
2022-11-16T11:40:19.684Z,14.54
2022-11-16T11:42:54.650Z,14.50
2022-11-16T11:45:26.112Z,14.59
2022-11-16T11:48:00.471Z,14.46
2022-11-16T11:50:39.879Z,14.53
2022-11-16T11:53:21.875Z,14.74
2022-11-16T11:55:55.903Z,15.19
2022-11-16T11:58:30.789Z,15.51
2022-11-16T12:01:29.008Z,15.79
2022-11-16T12:04:32.943Z,15.74
2022-11-16T12:07:12.587Z,15.49
2022-11-16T12:09:49.474Z,15.16
2022-11-16T12:12:36.067Z,15.09
2022-11-16T12:15:27.038Z,15.07
2022-11-16T12:18:09.357Z,14.84
2022-11-16T12:20:50.167Z,14.65
2022-11-16T12:23:35.686Z,14.63
2022-11-16T12:26:12.152Z,14.64
2022-11-16T12:28:52.605Z,14.56
2022-11-16T12:31:37.390Z,14.42
2022-11-16T12:34:15.090Z,14.44
2022-11-16T12:36:52.387Z,14.23
2022-11-16T12:39:24.943Z,14.13
2022-11-16T12:42:33.910Z,14.06
2022-11-16T12:45:32.069Z,14.07
2022-11-16T12:48:22.161Z,13.92
2022-11-16T12:50:59.889Z,13.78
2022-11-16T12:53:45.159Z,13.75
2022-11-16T12:56:25.900Z,13.76
2022-11-16T12:59:15.753Z,13.73
2022-11-16T13:01:49.798Z,13.72
2022-11-16T13:04:23.090Z,13.68
2022-11-16T13:06:56.937Z,13.68
2022-11-16T13:09:28.735Z,13.73
2022-11-16T13:11:59.302Z,13.68
2022-11-16T13:14:35.258Z,13.86
2022-11-16T13:17:06.853Z,13.95
2022-11-16T13:19:39.507Z,13.98
2022-11-16T13:22:13.731Z,14.02
2022-11-16T13:24:50.628Z,14.02
2022-11-16T13:27:32.544Z,13.98
2022-11-16T13:30:07.026Z,13.98
2022-11-16T13:32:57.212Z,13.94
2022-11-16T13:35:25.620Z,13.93
2022-11-16T13:37:53.479Z,13.93
2022-11-16T13:40:24.974Z,13.95
2022-11-16T13:43:03.344Z,13.91
2022-11-16T13:45:38.260Z,13.91
2022-11-16T13:48:18.530Z,13.89
2022-11-16T13:50:51.936Z,14.00
2022-11-16T13:54:32.685Z,14.11
2022-11-16T13:56:25.571Z,14.26
2022-11-16T13:58:57.017Z,14.26
2022-11-16T14:01:59.344Z,14.22
2022-11-16T14:04:56.254Z,14.17
2022-11-16T14:07:36.295Z,14.10
2022-11-16T14:10:08.646Z,14.08
2022-11-16T14:12:58.524Z,14.08
2022-11-16T14:15:34.378Z,14.06
2022-11-16T14:18:37.316Z,13.95
2022-11-16T14:21:13.753Z,13.90
2022-11-16T14:24:36.757Z,13.91
2022-11-16T14:27:15.994Z,13.84
2022-11-16T14:29:55.141Z,13.83
2022-11-16T14:32:26.147Z,13.86
2022-11-16T14:34:57.829Z,13.84
2022-11-16T14:37:34.433Z,13.77
2022-11-16T14:40:07.880Z,13.78
2022-11-16T14:43:09.431Z,13.72
2022-11-16T14:45:38.063Z,13.60
2022-11-16T14:48:14.526Z,13.63
2022-11-16T14:50:46.731Z,13.62
2022-11-16T14:53:19.060Z,13.58
2022-11-16T14:55:49.830Z,13.58
2022-11-16T14:58:20.280Z,13.51
2022-11-16T15:00:56.561Z,13.49
2022-11-16T15:03:29.854Z,13.47
2022-11-16T15:06:01.163Z,13.44
2022-11-16T15:08:34.463Z,13.43
2022-11-16T15:11:02.644Z,13.42
2022-11-16T15:13:33.236Z,13.39
2022-11-16T15:16:15.714Z,13.32
2022-11-16T15:18:57.173Z,13.31
2022-11-16T15:21:27.494Z,13.31
2022-11-16T15:24:23.608Z,13.21
2022-11-16T15:26:44.379Z,13.17
2022-11-16T15:29:16.679Z,13.11
2022-11-16T15:31:44.966Z,13.12
2022-11-16T15:34:14.060Z,13.08
2022-11-16T15:36:43.322Z,13.07
2022-11-16T15:39:15.767Z,13.04
2022-11-16T15:41:44.664Z,13.06
2022-11-16T15:44:17.053Z,13.01
2022-11-16T15:46:48.753Z,12.97
2022-11-16T15:49:28.622Z,12.93
2022-11-16T15:51:58.536Z,12.91
2022-11-16T15:54:28.426Z,12.90
2022-11-16T15:57:06.755Z,12.87
2022-11-16T15:59:37.140Z,12.86
2022-11-16T16:02:05.979Z,12.82
2022-11-16T16:04:33.888Z,12.81
2022-11-16T16:07:03.476Z,12.76
2022-11-16T16:09:33.569Z,12.77
2022-11-16T16:12:18.512Z,12.74
2022-11-16T16:14:47.197Z,12.70
2022-11-16T16:17:24.345Z,12.67
2022-11-16T16:19:56.617Z,12.65
2022-11-16T16:22:29.596Z,12.65
2022-11-16T16:24:57.861Z,12.65
2022-11-16T16:27:28.372Z,12.65
2022-11-16T16:29:58.248Z,12.61
2022-11-16T16:32:29.181Z,12.60
2022-11-16T16:34:59.147Z,12.58
2022-11-16T16:37:30.833Z,12.57
2022-11-16T16:40:00.644Z,12.57
2022-11-16T16:42:28.916Z,12.56
2022-11-16T16:45:00.353Z,12.54
2022-11-16T16:47:28.334Z,12.52
2022-11-16T16:49:57.498Z,12.50
2022-11-16T16:52:25.449Z,12.46
2022-11-16T16:54:54.673Z,12.40
2022-11-16T16:57:22.684Z,12.41
2022-11-16T16:59:50.598Z,12.43
2022-11-16T17:02:18.704Z,12.41
2022-11-16T17:04:48.339Z,12.41
2022-11-16T17:07:17.062Z,12.39
2022-11-16T17:09:45.317Z,12.39
2022-11-16T17:12:17.494Z,12.37
2022-11-16T17:14:51.424Z,12.27
2022-11-16T17:17:20.418Z,12.25
2022-11-16T17:19:48.727Z,12.28
2022-11-16T17:22:16.844Z,12.29
2022-11-16T17:24:45.059Z,12.25
2022-11-16T17:27:13.153Z,12.25
2022-11-16T17:29:43.105Z,12.24
2022-11-16T17:32:13.520Z,12.24
2022-11-16T17:34:41.776Z,12.26
2022-11-16T17:37:09.821Z,12.27
2022-11-16T17:39:37.754Z,12.22
2022-11-16T17:42:08.652Z,12.21
2022-11-16T17:44:37.358Z,12.16
2022-11-16T17:47:07.392Z,12.14
2022-11-16T17:49:37.864Z,12.18
2022-11-16T17:52:06.209Z,12.15
2022-11-16T17:54:34.250Z,12.13
2022-11-16T17:57:02.229Z,12.11
2022-11-16T17:59:31.387Z,12.09
2022-11-16T18:01:59.230Z,12.03
2022-11-16T18:04:28.661Z,12.03
2022-11-16T18:06:57.464Z,11.96
2022-11-16T18:09:44.463Z,11.96
2022-11-16T18:12:12.375Z,11.93
2022-11-16T18:14:42.407Z,11.90
2022-11-16T18:17:10.780Z,11.85
2022-11-16T18:19:40.057Z,11.80
2022-11-16T18:22:08.086Z,11.73
2022-11-16T18:24:36.137Z,11.68
2022-11-16T18:27:04.105Z,11.63
2022-11-16T18:29:35.246Z,11.58
2022-11-16T18:32:03.266Z,11.58
2022-11-16T18:34:31.847Z,11.56
2022-11-16T18:37:03.076Z,11.59
2022-11-16T18:39:34.080Z,11.59
2022-11-16T18:42:02.152Z,11.57
2022-11-16T18:44:30.437Z,11.61
2022-11-16T18:46:58.245Z,11.63
2022-11-16T18:49:26.272Z,11.63
2022-11-16T18:51:54.098Z,11.68
2022-11-16T18:54:23.446Z,11.68
2022-11-16T18:56:51.350Z,11.71
2022-11-16T18:59:21.413Z,11.76
2022-11-16T19:01:49.286Z,11.77
2022-11-16T19:04:17.328Z,11.81
2022-11-16T19:06:45.244Z,11.79
2022-11-16T19:09:13.390Z,11.83
2022-11-16T19:11:42.829Z,11.84
2022-11-16T19:14:10.896Z,11.87
2022-11-16T19:16:43.468Z,11.82
2022-11-16T19:19:15.621Z,11.89
2022-11-16T19:21:43.897Z,11.88
2022-11-16T19:24:12.101Z,11.86
2022-11-16T19:26:40.095Z,11.84
2022-11-16T19:29:09.687Z,11.87
2022-11-16T19:31:37.823Z,11.99
2022-11-16T19:34:07.938Z,12.12
2022-11-16T19:36:37.646Z,12.08
2022-11-16T19:39:08.218Z,12.03
2022-11-16T19:41:36.364Z,12.04
2022-11-16T19:44:04.450Z,11.99
2022-11-16T19:46:36.048Z,12.00
2022-11-16T19:49:08.553Z,11.97
2022-11-16T19:51:36.849Z,11.98
2022-11-16T19:54:05.030Z,11.96
2022-11-16T19:56:43.402Z,11.97
2022-11-16T19:59:13.657Z,11.96
2022-11-16T20:01:42.963Z,11.93
2022-11-16T20:04:10.901Z,11.93
2022-11-16T20:06:40.595Z,11.95
2022-11-16T20:09:12.438Z,11.95
2022-11-16T20:11:41.748Z,11.97
2022-11-16T20:14:11.572Z,11.93
2022-11-16T20:16:41.514Z,11.91
2022-11-16T20:19:11.992Z,11.91
2022-11-16T20:21:41.562Z,11.90
2022-11-16T20:24:12.570Z,11.87
2022-11-16T20:26:45.150Z,11.85
2022-11-16T20:29:13.651Z,11.81
2022-11-16T20:31:45.377Z,11.83
2022-11-16T20:34:16.657Z,11.81
2022-11-16T20:36:49.600Z,11.80
2022-11-16T20:39:28.721Z,11.80
2022-11-16T20:41:56.945Z,11.79
2022-11-16T20:44:24.746Z,11.79
2022-11-16T20:46:53.165Z,11.74
2022-11-16T20:49:23.126Z,11.78
2022-11-16T20:51:52.186Z,11.78
2022-11-16T20:54:20.016Z,11.78
2022-11-16T20:56:54.041Z,11.76
2022-11-16T20:59:22.287Z,11.81
2022-11-16T21:01:53.401Z,11.81
2022-11-16T21:04:23.639Z,11.80
2022-11-16T21:06:51.993Z,11.84
2022-11-16T21:09:28.086Z,11.83
2022-11-16T21:12:13.698Z,11.81
2022-11-16T21:14:41.706Z,11.81
2022-11-16T21:17:09.628Z,11.79
2022-11-16T21:19:39.342Z,11.77
2022-11-16T21:22:10.300Z,11.76
2022-11-16T21:24:38.295Z,11.73
2022-11-16T21:27:06.264Z,11.69
2022-11-16T21:29:36.643Z,11.63
2022-11-16T21:32:04.817Z,11.63
2022-11-16T21:34:37.276Z,11.67
2022-11-16T21:37:09.688Z,11.66
2022-11-16T21:39:37.540Z,11.61
2022-11-16T21:42:06.243Z,11.62
2022-11-16T21:44:41.957Z,11.57
2022-11-16T21:47:10.193Z,11.53
2022-11-16T21:49:59.284Z,11.55
2022-11-16T21:52:30.063Z,11.60
2022-11-16T21:55:05.868Z,11.53
2022-11-16T21:57:33.851Z,11.47
2022-11-16T22:00:02.105Z,11.48
2022-11-16T22:02:39.538Z,11.54
2022-11-16T22:05:26.390Z,11.51
2022-11-16T22:07:56.062Z,11.48
2022-11-16T22:10:24.016Z,11.52
2022-11-16T22:12:51.912Z,11.54
2022-11-16T22:15:19.801Z,11.58
2022-11-16T22:17:47.612Z,11.60
2022-11-16T22:20:15.565Z,11.58
2022-11-16T22:22:43.510Z,11.64
2022-11-16T22:25:14.034Z,11.66
2022-11-16T22:27:58.756Z,11.69
2022-11-16T22:30:30.457Z,11.69
2022-11-16T22:32:58.310Z,11.69
2022-11-16T22:35:26.501Z,11.69
2022-11-16T22:37:54.384Z,11.68
2022-11-16T22:40:23.775Z,11.67
2022-11-16T22:42:53.410Z,11.66
2022-11-16T22:45:21.370Z,11.68
2022-11-16T22:47:53.605Z,11.68
2022-11-16T22:50:24.015Z,11.70
2022-11-16T22:52:51.963Z,11.70
2022-11-16T22:55:19.878Z,11.70
2022-11-16T22:57:49.275Z,11.70
2022-11-16T23:00:18.678Z,11.71
2022-11-16T23:02:47.256Z,11.71
2022-11-16T23:05:15.379Z,11.68
2022-11-16T23:07:44.200Z,11.63
2022-11-16T23:10:12.137Z,11.67
2022-11-16T23:12:58.029Z,11.63
2022-11-16T23:15:45.165Z,11.64
2022-11-16T23:18:13.228Z,11.69
2022-11-16T23:20:58.489Z,11.66
2022-11-16T23:23:44.244Z,11.64
2022-11-16T23:26:35.798Z,11.65
2022-11-16T23:29:05.996Z,11.64
2022-11-16T23:31:35.601Z,11.63
2022-11-16T23:34:03.471Z,11.57
2022-11-16T23:36:31.595Z,11.61
2022-11-16T23:39:00.130Z,11.59
2022-11-16T23:41:45.539Z,11.59
2022-11-16T23:44:13.577Z,11.54
2022-11-16T23:46:43.108Z,11.54
2022-11-16T23:49:11.172Z,11.55
2022-11-16T23:51:39.138Z,11.51
2022-11-16T23:54:07.567Z,11.53
2022-11-16T23:56:35.495Z,11.53
2022-11-16T23:59:03.488Z,11.53
